createdAt,value
2023-04-09T00:01:03.488Z,101920.77
2023-04-09T00:03:43.973Z,101919.55
2023-04-09T00:06:37.570Z,101918.89
2023-04-09T00:09:16.099Z,101917.97
2023-04-09T00:11:50.903Z,101915.80
2023-04-09T00:14:26.039Z,101915.52
2023-04-09T00:17:03.204Z,101918.48
2023-04-09T00:19:39.277Z,101922.94
2023-04-09T00:22:17.364Z,101921.80
2023-04-09T00:24:52.917Z,101926.41
2023-04-09T00:27:33.352Z,101928.55
2023-04-09T00:30:11.817Z,101926.05
2023-04-09T00:32:48.096Z,101924.42
2023-04-09T00:35:22.225Z,101919.20
2023-04-09T00:38:00.388Z,101918.63
2023-04-09T00:40:39.452Z,101918.08
2023-04-09T00:43:17.511Z,101919.52
2023-04-09T00:45:55.386Z,101917.33
2023-04-09T00:48:31.155Z,101913.70
2023-04-09T00:51:08.753Z,101915.88
2023-04-09T00:53:47.597Z,101918.34
2023-04-09T00:56:24.275Z,101915.60
2023-04-09T00:59:03.985Z,101919.81
2023-04-09T01:01:40.566Z,101916.61
2023-04-09T01:04:17.851Z,101916.14
2023-04-09T01:07:00.268Z,101917.81
2023-04-09T01:09:39.254Z,101915.11
2023-04-09T01:12:28.494Z,101919.29
2023-04-09T01:15:09.321Z,101922.73
2023-04-09T01:17:53.101Z,101926.20
2023-04-09T01:20:40.678Z,101928.23
2023-04-09T01:23:22.013Z,101925.67
2023-04-09T01:26:07.435Z,101923.89
2023-04-09T01:28:55.373Z,101925.30
2023-04-09T01:31:34.724Z,101924.98
2023-04-09T01:34:13.210Z,101927.84
2023-04-09T01:36:53.583Z,101927.64
2023-04-09T01:39:32.395Z,101929.84
2023-04-09T01:42:11.731Z,101931.23
2023-04-09T01:44:49.481Z,101928.23
2023-04-09T01:47:28.820Z,101928.53
2023-04-09T01:50:07.544Z,101928.03
2023-04-09T01:52:43.382Z,101929.27
2023-04-09T01:55:18.110Z,101929.48
2023-04-09T01:57:54.307Z,101928.02
2023-04-09T02:00:37.422Z,101930.52
2023-04-09T02:03:18.564Z,101930.18
2023-04-09T02:06:02.424Z,101930.64
2023-04-09T02:08:45.096Z,101931.30
2023-04-09T02:11:21.468Z,101928.14
2023-04-09T02:14:01.625Z,101923.70
2023-04-09T02:16:37.851Z,101925.65
2023-04-09T02:19:15.288Z,101923.31
2023-04-09T02:21:53.376Z,101924.27
2023-04-09T02:24:31.283Z,101921.04
2023-04-09T02:27:07.743Z,101918.80
2023-04-09T02:29:47.022Z,101918.78
2023-04-09T02:32:21.762Z,101921.89
2023-04-09T02:34:56.329Z,101918.91
2023-04-09T02:37:32.322Z,101919.44
2023-04-09T02:40:20.903Z,101914.30
2023-04-09T02:42:57.451Z,101916.23
2023-04-09T02:45:35.237Z,101912.39
2023-04-09T02:48:12.184Z,101909.94
2023-04-09T02:50:51.129Z,101907.92
2023-04-09T02:53:26.644Z,101906.31
2023-04-09T02:56:03.305Z,101907.60
2023-04-09T02:58:39.022Z,101903.77
2023-04-09T03:01:16.637Z,101900.93
2023-04-09T03:03:56.902Z,101899.99
2023-04-09T03:06:34.441Z,101904.95
2023-04-09T03:09:12.125Z,101909.41
2023-04-09T03:11:48.230Z,101914.60
2023-04-09T03:14:24.852Z,101912.73
2023-04-09T03:17:02.153Z,101914.34
2023-04-09T03:19:42.182Z,101910.09
2023-04-09T03:22:19.145Z,101904.27
2023-04-09T03:24:58.526Z,101910.52
2023-04-09T03:27:36.335Z,101909.17
2023-04-09T03:30:17.359Z,101909.98
2023-04-09T03:32:54.123Z,101906.10
2023-04-09T03:35:34.394Z,101913.88
2023-04-09T03:38:12.832Z,101916.36
2023-04-09T03:40:49.255Z,101914.89
2023-04-09T03:43:24.447Z,101915.59
2023-04-09T03:46:01.249Z,101909.47
2023-04-09T03:48:38.237Z,101908.41
2023-04-09T03:51:16.095Z,101912.66
2023-04-09T03:53:58.534Z,101911.23
2023-04-09T03:56:35.153Z,101919.36
2023-04-09T03:59:10.423Z,101915.88
2023-04-09T04:01:48.895Z,101915.52
2023-04-09T04:04:26.418Z,101910.98
2023-04-09T04:07:05.142Z,101911.05
2023-04-09T04:09:49.482Z,101910.55
2023-04-09T04:12:27.385Z,101916.02
2023-04-09T04:15:18.208Z,101916.78
2023-04-09T04:17:55.748Z,101915.83
2023-04-09T04:21:03.999Z,101917.66
2023-04-09T04:23:40.818Z,101918.37
2023-04-09T04:26:25.830Z,101912.60
2023-04-09T04:29:01.624Z,101911.48
2023-04-09T04:32:08.872Z,101908.35
2023-04-09T04:34:45.212Z,101906.46
2023-04-09T04:37:28.929Z,101901.45
2023-04-09T04:40:11.367Z,101896.21
2023-04-09T04:42:51.038Z,101893.38
2023-04-09T04:45:28.479Z,101894.54
2023-04-09T04:48:11.750Z,101901.39
2023-04-09T04:50:48.281Z,101903.28
2023-04-09T04:53:24.618Z,101906.49
2023-04-09T04:56:01.856Z,101904.65
2023-04-09T04:58:37.235Z,101906.02
2023-04-09T05:01:13.002Z,101903.49
2023-04-09T05:03:52.840Z,101911.66
2023-04-09T05:06:37.908Z,101913.42
2023-04-09T05:09:18.749Z,101923.73
2023-04-09T05:12:06.139Z,101923.96
2023-04-09T05:14:42.484Z,101925.98
2023-04-09T05:17:18.803Z,101932.23
2023-04-09T05:19:59.304Z,101932.08
2023-04-09T05:22:44.626Z,101931.35
2023-04-09T05:25:29.752Z,101934.67
2023-04-09T05:28:05.534Z,101936.88
2023-04-09T05:30:41.789Z,101935.74
2023-04-09T05:33:20.463Z,101938.38
2023-04-09T05:35:59.141Z,101938.57
2023-04-09T05:38:34.847Z,101939.31
2023-04-09T05:41:11.545Z,101938.45
2023-04-09T05:43:56.089Z,101940.30
2023-04-09T05:46:33.108Z,101945.02
2023-04-09T05:49:13.835Z,101949.02
2023-04-09T05:51:58.492Z,101953.18
2023-04-09T05:54:35.024Z,101945.89
2023-04-09T05:57:10.440Z,101946.11
2023-04-09T05:59:47.385Z,101946.20
2023-04-09T06:02:28.511Z,101944.55
2023-04-09T06:05:06.282Z,101945.67
2023-04-09T06:07:42.166Z,101943.73
2023-04-09T06:10:25.557Z,101942.44
2023-04-09T06:13:09.394Z,101945.79
2023-04-09T06:15:50.517Z,101947.33
2023-04-09T06:18:25.189Z,101951.56
2023-04-09T06:21:08.823Z,101955.69
2023-04-09T06:23:46.495Z,101963.45
2023-04-09T06:26:23.788Z,101963.63
2023-04-09T06:29:01.351Z,101965.86
2023-04-09T06:31:38.640Z,101970.57
2023-04-09T06:34:16.884Z,101973.23
2023-04-09T06:37:01.309Z,101981.89
2023-04-09T06:39:40.399Z,101983.83
2023-04-09T06:42:21.402Z,101982.11
2023-04-09T06:45:04.352Z,101984.04
2023-04-09T06:47:41.649Z,101988.13
2023-04-09T06:50:18.261Z,101990.80
2023-04-09T06:52:56.174Z,101993.62
2023-04-09T06:55:32.287Z,101995.13
2023-04-09T06:58:09.819Z,101992.04
2023-04-09T07:00:45.970Z,101997.16
2023-04-09T07:03:41.842Z,101998.92
2023-04-09T07:06:17.998Z,101999.55
2023-04-09T07:08:54.815Z,102005.70
2023-04-09T07:11:33.375Z,102005.15
2023-04-09T07:14:12.571Z,102003.57
2023-04-09T07:16:58.728Z,102004.60
2023-04-09T07:19:34.408Z,102009.44
2023-04-09T07:22:15.651Z,102012.41
2023-04-09T07:24:58.376Z,102014.96
2023-04-09T07:27:35.529Z,102011.66
2023-04-09T07:30:18.315Z,102015.56
2023-04-09T07:32:53.555Z,102016.08
2023-04-09T07:35:30.832Z,102018.20
2023-04-09T07:38:08.344Z,102015.20
2023-04-09T07:40:49.001Z,102017.34
2023-04-09T07:43:25.083Z,102013.94
2023-04-09T07:46:00.272Z,102010.54
2023-04-09T07:48:37.498Z,102011.81
2023-04-09T07:51:15.131Z,102012.02
2023-04-09T07:53:54.527Z,102010.40
2023-04-09T07:56:32.004Z,102014.60
2023-04-09T07:59:09.652Z,102010.76
2023-04-09T08:01:45.849Z,102009.89
2023-04-09T08:04:25.380Z,102010.37
2023-04-09T08:07:02.882Z,102010.73
2023-04-09T08:09:41.859Z,102010.51
2023-04-09T08:12:30.712Z,102008.39
2023-04-09T08:15:11.032Z,102006.41
2023-04-09T08:18:05.564Z,102007.81
2023-04-09T08:20:46.360Z,102011.79
2023-04-09T08:23:24.624Z,102008.73
2023-04-09T08:26:00.538Z,102008.67
2023-04-09T08:28:35.820Z,102006.69
2023-04-09T08:31:14.605Z,102008.09
2023-04-09T08:33:51.823Z,102003.02
2023-04-09T08:36:29.178Z,102003.80
2023-04-09T08:39:06.198Z,102004.98
2023-04-09T08:41:46.867Z,102000.99
2023-04-09T08:44:30.702Z,102004.63
2023-04-09T08:47:10.701Z,102002.95
2023-04-09T08:49:45.911Z,102002.17
2023-04-09T08:52:22.442Z,102001.37
2023-04-09T08:54:59.385Z,102005.56
2023-04-09T08:57:40.319Z,101999.35
2023-04-09T09:00:21.738Z,102000.56
2023-04-09T09:03:14.541Z,101991.98
2023-04-09T09:05:54.560Z,101995.50
2023-04-09T09:08:33.446Z,101989.20
2023-04-09T09:11:27.159Z,101989.64
2023-04-09T09:14:08.897Z,101995.52
2023-04-09T09:16:50.515Z,101990.44
2023-04-09T09:19:36.829Z,101990.75
2023-04-09T09:22:15.629Z,101992.35
2023-04-09T09:24:54.413Z,101993.81
2023-04-09T09:27:41.525Z,102000.30
2023-04-09T09:30:28.407Z,102002.09
2023-04-09T09:33:10.275Z,102002.73
2023-04-09T09:36:04.152Z,102005.02
2023-04-09T09:38:57.781Z,102001.86
2023-04-09T09:41:38.433Z,102001.69
2023-04-09T09:44:13.529Z,102000.15
2023-04-09T09:46:48.854Z,102004.29
2023-04-09T09:49:40.453Z,102002.27
2023-04-09T09:52:17.481Z,102001.48
2023-04-09T09:54:57.220Z,102001.39
2023-04-09T09:57:38.561Z,101998.16
2023-04-09T10:00:28.001Z,101995.33
2023-04-09T10:03:24.149Z,101997.13
2023-04-09T10:06:02.569Z,101992.95
2023-04-09T10:08:41.979Z,101984.19
2023-04-09T10:11:18.655Z,101985.92
2023-04-09T10:14:00.996Z,101979.75
2023-04-09T10:16:41.228Z,101983.14
2023-04-09T10:19:17.529Z,101983.43
2023-04-09T10:22:05.021Z,101984.97
2023-04-09T10:24:41.959Z,101978.63
2023-04-09T10:27:19.788Z,101978.35
2023-04-09T10:29:55.956Z,101968.02
2023-04-09T10:32:40.918Z,101977.46
2023-04-09T10:35:29.891Z,101980.38
2023-04-09T10:38:05.030Z,101981.75
2023-04-09T10:41:21.147Z,101981.70
2023-04-09T10:43:59.873Z,101984.81
2023-04-09T10:46:46.293Z,101988.81
2023-04-09T10:49:23.540Z,101986.41
2023-04-09T10:52:06.547Z,101986.14
2023-04-09T10:54:51.438Z,101983.46
2023-04-09T10:57:28.812Z,101986.62
2023-04-09T11:00:04.468Z,101986.94
2023-04-09T11:03:16.750Z,101989.27
2023-04-09T11:05:57.885Z,101992.39
2023-04-09T11:08:35.794Z,101989.56
2023-04-09T11:11:21.728Z,101992.58
2023-04-09T11:14:03.043Z,101988.48
2023-04-09T11:16:41.533Z,101986.52
2023-04-09T11:19:22.933Z,101983.86
2023-04-09T11:22:00.075Z,101985.55
2023-04-09T11:24:48.179Z,101986.41
2023-04-09T11:27:26.126Z,101988.92
2023-04-09T11:30:03.839Z,101986.73
2023-04-09T11:32:40.798Z,101983.08
2023-04-09T11:35:20.858Z,101982.17
2023-04-09T11:37:58.710Z,101983.29
2023-04-09T11:40:34.784Z,101981.96
2023-04-09T11:43:11.987Z,101985.17
2023-04-09T11:45:49.039Z,101984.77
2023-04-09T11:48:25.437Z,101983.77
2023-04-09T11:51:00.536Z,101984.01
2023-04-09T11:53:39.785Z,101981.56
2023-04-09T11:56:17.306Z,101976.64
2023-04-09T11:58:52.906Z,101973.85
2023-04-09T12:01:37.505Z,101971.39
2023-04-09T12:04:14.695Z,101967.03
2023-04-09T12:06:51.776Z,101971.50
2023-04-09T12:09:29.811Z,101967.45
2023-04-09T12:12:12.356Z,101965.33
2023-04-09T12:15:01.884Z,101960.14
2023-04-09T12:17:38.965Z,101962.72
2023-04-09T12:20:15.550Z,101962.42
2023-04-09T12:22:53.975Z,101958.81
2023-04-09T12:25:35.841Z,101960.45
2023-04-09T12:28:19.075Z,101961.05
2023-04-09T12:30:55.791Z,101965.73
2023-04-09T12:33:32.667Z,101965.77
2023-04-09T12:36:08.436Z,101963.70
2023-04-09T12:38:44.826Z,101962.66
2023-04-09T12:41:22.786Z,101962.13
2023-04-09T12:43:58.968Z,101960.95
2023-04-09T12:46:33.623Z,101960.38
2023-04-09T12:49:09.896Z,101957.41
2023-04-09T12:51:49.806Z,101956.12
2023-04-09T12:54:24.316Z,101957.02
2023-04-09T12:57:00.409Z,101964.14
2023-04-09T12:59:36.774Z,101957.95
2023-04-09T13:02:17.154Z,101958.72
2023-04-09T13:04:52.964Z,101957.67
2023-04-09T13:07:29.968Z,101954.14
2023-04-09T13:10:06.970Z,101952.66
2023-04-09T13:12:44.159Z,101954.10
2023-04-09T13:15:21.101Z,101952.83
2023-04-09T13:17:56.788Z,101950.20
2023-04-09T13:20:36.056Z,101948.45
2023-04-09T13:23:15.769Z,101948.11
2023-04-09T13:25:53.637Z,101947.77
2023-04-09T13:28:31.370Z,101954.13
2023-04-09T13:31:09.832Z,101951.55
2023-04-09T13:33:48.178Z,101951.70
2023-04-09T13:36:26.874Z,101947.05
2023-04-09T13:39:06.675Z,101944.08
2023-04-09T13:41:44.312Z,101941.91
2023-04-09T13:44:21.077Z,101940.33
2023-04-09T13:46:57.215Z,101939.23
2023-04-09T13:49:33.883Z,101931.83
2023-04-09T13:52:11.950Z,101930.98
2023-04-09T13:54:48.709Z,101928.66
2023-04-09T13:57:24.785Z,101931.85
2023-04-09T14:00:02.876Z,101926.72
2023-04-09T14:02:41.674Z,101925.59
2023-04-09T14:05:18.085Z,101925.23
2023-04-09T14:07:54.097Z,101925.77
2023-04-09T14:10:31.771Z,101920.11
2023-04-09T14:13:13.281Z,101921.98
2023-04-09T14:15:51.305Z,101922.16
2023-04-09T14:18:27.793Z,101915.96
2023-04-09T14:21:04.526Z,101918.00
2023-04-09T14:23:43.455Z,101914.78
2023-04-09T14:26:23.497Z,101911.54
2023-04-09T14:29:00.128Z,101909.39
2023-04-09T14:31:47.822Z,101908.31
2023-04-09T14:34:25.155Z,101902.08
2023-04-09T14:36:59.893Z,101899.94
2023-04-09T14:39:37.037Z,101894.54
2023-04-09T14:42:13.510Z,101891.59
2023-04-09T14:44:50.798Z,101888.84
2023-04-09T14:47:27.278Z,101888.22
2023-04-09T14:50:03.115Z,101888.98
2023-04-09T14:52:39.542Z,101889.36
2023-04-09T14:55:18.927Z,101890.41
2023-04-09T14:57:57.134Z,101887.30
2023-04-09T15:00:32.496Z,101884.77
2023-04-09T15:03:14.159Z,101885.19
2023-04-09T15:05:51.242Z,101883.81
2023-04-09T15:08:25.721Z,101886.09
2023-04-09T15:11:01.640Z,101890.84
2023-04-09T15:13:37.632Z,101887.77
2023-04-09T15:16:23.187Z,101886.30
2023-04-09T15:19:00.206Z,101890.55
2023-04-09T15:21:36.957Z,101887.26
2023-04-09T15:24:12.441Z,101887.66
2023-04-09T15:26:48.994Z,101888.50
2023-04-09T15:29:26.503Z,101888.11
2023-04-09T15:32:21.330Z,101889.05
2023-04-09T15:34:57.466Z,101887.69
2023-04-09T15:37:32.296Z,101892.67
2023-04-09T15:40:10.637Z,101892.16
2023-04-09T15:42:46.410Z,101895.10
2023-04-09T15:45:23.736Z,101899.39
2023-04-09T15:47:59.305Z,101899.08
2023-04-09T15:50:35.417Z,101902.02
2023-04-09T15:53:12.774Z,101902.60
2023-04-09T15:55:50.187Z,101902.64
2023-04-09T15:58:25.997Z,101906.41
2023-04-09T16:01:02.599Z,101908.14
2023-04-09T16:03:52.118Z,101907.69
2023-04-09T16:06:28.123Z,101908.17
2023-04-09T16:09:04.628Z,101909.99
2023-04-09T16:11:41.406Z,101907.80
2023-04-09T16:14:22.714Z,101906.88
2023-04-09T16:16:59.482Z,101903.02
2023-04-09T16:19:37.178Z,101907.51
2023-04-09T16:22:16.555Z,101904.39
2023-04-09T16:24:54.170Z,101903.69
2023-04-09T16:27:29.586Z,101900.67
2023-04-09T16:30:06.181Z,101900.48
2023-04-09T16:32:43.083Z,101902.86
2023-04-09T16:35:18.592Z,101903.98
2023-04-09T16:37:57.344Z,101895.36
2023-04-09T16:40:32.044Z,101893.15
2023-04-09T16:43:09.808Z,101896.56
2023-04-09T16:45:47.301Z,101897.24
2023-04-09T16:48:23.187Z,101903.80
2023-04-09T16:50:57.891Z,101904.20
2023-04-09T16:53:35.036Z,101904.42
2023-04-09T16:56:12.027Z,101902.73
2023-04-09T16:58:48.223Z,101907.21
2023-04-09T17:01:27.373Z,101907.59
2023-04-09T17:04:03.235Z,101911.21
2023-04-09T17:06:40.242Z,101908.24
2023-04-09T17:09:18.654Z,101908.88
2023-04-09T17:11:55.203Z,101912.68
2023-04-09T17:14:30.524Z,101914.98
2023-04-09T17:17:06.358Z,101918.02
2023-04-09T17:19:46.555Z,101918.85
2023-04-09T17:22:23.939Z,101921.30
2023-04-09T17:25:03.193Z,101925.94
2023-04-09T17:27:39.402Z,101923.59
2023-04-09T17:30:18.957Z,101926.84
2023-04-09T17:32:57.301Z,101928.12
2023-04-09T17:35:33.062Z,101930.48
2023-04-09T17:38:14.576Z,101931.47
2023-04-09T17:40:51.301Z,101932.42
2023-04-09T17:43:27.333Z,101936.11
2023-04-09T17:46:03.861Z,101936.11
2023-04-09T17:48:41.425Z,101936.16
2023-04-09T17:51:23.805Z,101938.80
2023-04-09T17:54:00.257Z,101944.25
2023-04-09T17:56:40.073Z,101945.20
2023-04-09T17:59:17.532Z,101942.38
2023-04-09T18:02:06.154Z,101942.05
2023-04-09T18:04:44.524Z,101940.25
2023-04-09T18:07:25.399Z,101945.76
2023-04-09T18:10:01.946Z,101948.47
2023-04-09T18:12:38.643Z,101947.25
2023-04-09T18:15:18.981Z,101947.93
2023-04-09T18:17:53.966Z,101955.26
2023-04-09T18:20:34.406Z,101955.38
2023-04-09T18:23:12.107Z,101957.02
2023-04-09T18:25:48.524Z,101955.42
2023-04-09T18:28:24.706Z,101960.70
2023-04-09T18:31:00.909Z,101964.67
2023-04-09T18:33:35.480Z,101969.11
2023-04-09T18:36:12.078Z,101971.08
2023-04-09T18:38:54.201Z,101977.59
2023-04-09T18:41:32.924Z,101976.00
2023-04-09T18:44:09.145Z,101977.63
2023-04-09T18:46:45.170Z,101982.85
2023-04-09T18:49:21.458Z,101986.30
2023-04-09T18:51:57.905Z,101986.48
2023-04-09T18:54:37.389Z,101985.91
2023-04-09T18:57:14.009Z,101987.34
2023-04-09T18:59:52.503Z,101980.29
2023-04-09T19:02:33.081Z,101982.25
2023-04-09T19:05:12.172Z,101978.85
2023-04-09T19:07:48.103Z,101979.29
2023-04-09T19:10:26.756Z,101977.48
2023-04-09T19:13:03.449Z,101979.08
2023-04-09T19:15:39.812Z,101977.02
2023-04-09T19:18:16.250Z,101978.41
2023-04-09T19:20:54.939Z,101978.39
2023-04-09T19:23:35.129Z,101976.98
2023-04-09T19:26:18.604Z,101980.13
2023-04-09T19:28:55.989Z,101978.12
2023-04-09T19:31:38.187Z,101985.67
2023-04-09T19:34:14.148Z,101984.46
2023-04-09T19:36:48.581Z,101989.03
2023-04-09T19:39:28.331Z,101992.45
2023-04-09T19:42:01.818Z,101996.31
2023-04-09T19:44:38.617Z,101999.17
2023-04-09T19:47:15.967Z,102006.00
2023-04-09T19:49:52.816Z,102005.70
2023-04-09T19:52:31.330Z,102010.17
2023-04-09T19:55:06.826Z,102006.85
2023-04-09T19:57:44.813Z,102006.00
2023-04-09T20:00:24.062Z,102008.57
2023-04-09T20:03:02.214Z,102009.26
2023-04-09T20:05:40.507Z,102005.02
2023-04-09T20:08:16.517Z,102006.44
2023-04-09T20:10:52.986Z,102010.11
2023-04-09T20:13:30.665Z,102011.08
2023-04-09T20:16:07.038Z,102014.64
2023-04-09T20:18:47.704Z,102016.10
2023-04-09T20:21:24.401Z,102023.16
2023-04-09T20:23:58.930Z,102027.60
2023-04-09T20:26:38.098Z,102024.67
2023-04-09T20:29:14.737Z,102024.66
2023-04-09T20:31:50.720Z,102024.09
2023-04-09T20:34:31.730Z,102025.80
2023-04-09T20:37:07.152Z,102028.11
2023-04-09T20:39:47.949Z,102032.08
2023-04-09T20:42:25.141Z,102033.77
2023-04-09T20:45:01.994Z,102033.95
2023-04-09T20:47:39.307Z,102032.76
2023-04-09T20:50:16.650Z,102031.08
2023-04-09T20:52:53.328Z,102031.78
2023-04-09T20:55:29.511Z,102028.48
2023-04-09T20:58:06.508Z,102029.34
2023-04-09T21:00:42.232Z,102025.98
2023-04-09T21:03:18.864Z,102027.73
2023-04-09T21:05:53.764Z,102030.86
2023-04-09T21:08:29.753Z,102033.39
2023-04-09T21:11:09.030Z,102033.04
2023-04-09T21:13:54.503Z,102037.17
2023-04-09T21:16:31.423Z,102036.95
2023-04-09T21:19:08.899Z,102042.91
2023-04-09T21:21:50.710Z,102040.80
2023-04-09T21:24:31.369Z,102038.52
2023-04-09T21:27:08.913Z,102034.04
2023-04-09T21:29:53.652Z,102034.03
2023-04-09T21:32:29.271Z,102034.04
2023-04-09T21:35:12.048Z,102041.08
2023-04-09T21:37:46.056Z,102044.98
2023-04-09T21:40:23.983Z,102043.83
2023-04-09T21:43:04.200Z,102044.24
2023-04-09T21:45:40.784Z,102042.80
2023-04-09T21:48:21.011Z,102039.38
2023-04-09T21:50:58.675Z,102039.44
2023-04-09T21:53:36.948Z,102041.06
2023-04-09T21:56:17.072Z,102041.09
2023-04-09T21:58:53.025Z,102041.47
2023-04-09T22:01:29.921Z,102037.58
2023-04-09T22:04:11.282Z,102038.10
2023-04-09T22:06:51.121Z,102033.56
2023-04-09T22:09:28.702Z,102030.41
2023-04-09T22:12:07.078Z,102030.39
2023-04-09T22:14:42.627Z,102031.21
2023-04-09T22:17:19.866Z,102030.05
2023-04-09T22:19:58.112Z,102031.40
2023-04-09T22:22:39.133Z,102025.21
2023-04-09T22:25:17.948Z,102027.20
2023-04-09T22:27:57.809Z,102030.96
2023-04-09T22:30:34.913Z,102033.95
2023-04-09T22:33:10.844Z,102036.25
2023-04-09T22:35:49.127Z,102039.30
2023-04-09T22:38:25.752Z,102041.52
2023-04-09T22:41:00.972Z,102039.02
2023-04-09T22:43:37.086Z,102039.27
2023-04-09T22:46:17.012Z,102039.83
2023-04-09T22:48:55.131Z,102040.08
2023-04-09T22:51:35.362Z,102041.60
2023-04-09T22:54:13.154Z,102042.86
2023-04-09T22:56:55.538Z,102043.46
2023-04-09T22:59:40.208Z,102048.70
2023-04-09T23:02:20.303Z,102053.19
2023-04-09T23:05:03.062Z,102052.58
2023-04-09T23:07:39.092Z,102051.73
2023-04-09T23:10:19.111Z,102047.21
2023-04-09T23:12:55.041Z,102048.19
2023-04-09T23:15:33.886Z,102046.10
2023-04-09T23:18:09.991Z,102044.17
2023-04-09T23:20:47.044Z,102041.27
2023-04-09T23:23:24.276Z,102039.96
2023-04-09T23:26:00.115Z,102039.35
2023-04-09T23:28:36.191Z,102034.30
2023-04-09T23:31:12.021Z,102033.86
2023-04-09T23:33:49.955Z,102030.21
2023-04-09T23:36:32.751Z,102027.96
2023-04-09T23:39:10.095Z,102025.38
2023-04-09T23:41:48.388Z,102026.00
2023-04-09T23:44:22.713Z,102022.76
2023-04-09T23:47:00.335Z,102021.56
2023-04-09T23:49:38.075Z,102025.23
2023-04-09T23:52:18.086Z,102023.04
2023-04-09T23:54:56.123Z,102021.38
2023-04-09T23:57:35.223Z,102014.17
